createdAt,value
2023-04-15T00:00:56.567Z,70.04
2023-04-15T00:03:23.290Z,69.65
2023-04-15T00:05:50.095Z,70.00
2023-04-15T00:08:16.607Z,71.03
2023-04-15T00:10:43.082Z,70.30
2023-04-15T00:13:09.842Z,70.50
2023-04-15T00:15:36.367Z,69.33
2023-04-15T00:18:02.901Z,70.06
2023-04-15T00:20:29.349Z,70.02
2023-04-15T00:22:55.857Z,69.25
2023-04-15T00:25:22.336Z,68.75
2023-04-15T00:27:48.815Z,70.83
2023-04-15T00:30:15.344Z,70.38
2023-04-15T00:32:41.881Z,69.79
2023-04-15T00:35:08.816Z,69.90
2023-04-15T00:37:35.312Z,70.45
2023-04-15T00:40:01.800Z,69.60
2023-04-15T00:42:28.778Z,71.20
2023-04-15T00:44:55.265Z,70.97
2023-04-15T00:47:21.861Z,70.69
2023-04-15T00:49:48.347Z,71.75
2023-04-15T00:52:14.968Z,70.90
2023-04-15T00:54:41.458Z,71.19
2023-04-15T00:57:08.029Z,70.76
2023-04-15T00:59:34.671Z,72.20
2023-04-15T01:02:01.360Z,70.80
2023-04-15T01:04:28.031Z,70.49
2023-04-15T01:06:54.652Z,69.79
2023-04-15T01:09:21.161Z,70.48
2023-04-15T01:11:47.813Z,71.98
2023-04-15T01:14:14.348Z,71.23
2023-04-15T01:16:40.879Z,70.53
2023-04-15T01:19:10.725Z,71.40
2023-04-15T01:21:37.836Z,71.02
2023-04-15T01:24:10.644Z,73.86
2023-04-15T01:26:41.123Z,73.82
2023-04-15T01:29:07.703Z,73.70
2023-04-15T01:31:34.360Z,73.10
2023-04-15T01:34:00.947Z,72.90
2023-04-15T01:36:27.862Z,72.71
2023-04-15T01:38:55.871Z,72.13
2023-04-15T01:41:28.153Z,72.46
2023-04-15T01:43:55.029Z,72.30
2023-04-15T01:46:21.634Z,72.54
2023-04-15T01:48:48.152Z,71.52
2023-04-15T01:51:14.675Z,71.14
2023-04-15T01:53:41.168Z,70.73
2023-04-15T01:56:07.899Z,70.66
2023-04-15T01:58:34.424Z,70.62
2023-04-15T02:01:00.934Z,71.09
2023-04-15T02:03:29.037Z,70.51
2023-04-15T02:05:55.653Z,71.13
2023-04-15T02:08:22.277Z,71.45
2023-04-15T02:10:48.764Z,71.42
2023-04-15T02:13:15.248Z,71.21
2023-04-15T02:15:47.301Z,71.36
2023-04-15T02:18:13.906Z,71.26
2023-04-15T02:20:40.417Z,71.18
2023-04-15T02:23:06.901Z,72.73
2023-04-15T02:25:33.442Z,73.04
2023-04-15T02:27:59.935Z,72.50
2023-04-15T02:30:26.398Z,73.07
2023-04-15T02:32:52.989Z,73.07
2023-04-15T02:35:19.560Z,72.63
2023-04-15T02:37:46.040Z,73.07
2023-04-15T02:40:13.350Z,72.64
2023-04-15T02:42:40.095Z,72.76
2023-04-15T02:45:07.208Z,72.18
2023-04-15T02:47:34.985Z,72.30
2023-04-15T02:50:03.353Z,73.29
2023-04-15T02:52:29.859Z,73.48
2023-04-15T02:54:56.415Z,72.38
2023-04-15T02:57:23.196Z,73.19
2023-04-15T02:59:49.664Z,74.32
2023-04-15T03:02:16.316Z,74.47
2023-04-15T03:04:42.960Z,75.19
2023-04-15T03:07:09.464Z,76.23
2023-04-15T03:09:35.960Z,74.73
2023-04-15T03:12:03.055Z,74.64
2023-04-15T03:14:29.599Z,75.70
2023-04-15T03:16:56.127Z,76.13
2023-04-15T03:19:22.743Z,74.76
2023-04-15T03:21:49.210Z,75.25
2023-04-15T03:24:15.808Z,74.74
2023-04-15T03:26:42.311Z,74.57
2023-04-15T03:29:08.882Z,75.08
2023-04-15T03:31:35.422Z,74.99
2023-04-15T03:34:01.932Z,74.68
2023-04-15T03:36:29.776Z,74.87
2023-04-15T03:38:56.273Z,74.91
2023-04-15T03:41:22.721Z,75.03
2023-04-15T03:43:49.215Z,75.64
2023-04-15T03:46:15.783Z,75.48
2023-04-15T03:48:42.288Z,75.24
2023-04-15T03:51:08.752Z,75.09
2023-04-15T03:53:35.288Z,74.69
2023-04-15T03:56:01.823Z,75.00
2023-04-15T03:58:28.416Z,74.71
2023-04-15T04:00:54.950Z,74.45
2023-04-15T04:03:21.712Z,74.84
2023-04-15T04:05:48.557Z,74.40
2023-04-15T04:08:15.075Z,74.58
2023-04-15T04:10:41.904Z,74.79
2023-04-15T04:13:08.679Z,74.47
2023-04-15T04:15:35.237Z,74.24
2023-04-15T04:18:01.923Z,72.69
2023-04-15T04:20:28.461Z,72.76
2023-04-15T04:22:54.958Z,72.98
2023-04-15T04:25:21.428Z,73.37
2023-04-15T04:27:47.890Z,73.49
2023-04-15T04:30:14.401Z,73.64
2023-04-15T04:32:40.967Z,73.51
2023-04-15T04:35:07.926Z,72.58
2023-04-15T04:37:34.411Z,73.22
2023-04-15T04:40:00.900Z,72.69
2023-04-15T04:42:27.520Z,72.64
2023-04-15T04:44:54.057Z,71.86
2023-04-15T04:47:20.637Z,71.74
2023-04-15T04:49:47.261Z,71.53
2023-04-15T04:52:13.840Z,72.04
2023-04-15T04:54:40.352Z,72.41
2023-04-15T04:57:06.833Z,72.48
2023-04-15T04:59:33.661Z,72.39
2023-04-15T05:02:00.330Z,72.74
2023-04-15T05:04:26.862Z,72.15
2023-04-15T05:06:53.382Z,72.34
2023-04-15T05:09:19.867Z,72.90
2023-04-15T05:11:46.349Z,72.09
2023-04-15T05:14:12.858Z,72.89
2023-04-15T05:16:39.366Z,72.37
2023-04-15T05:19:05.885Z,71.50
2023-04-15T05:21:32.400Z,70.87
2023-04-15T05:23:58.994Z,71.41
2023-04-15T05:26:25.469Z,70.11
2023-04-15T05:28:51.983Z,68.46
2023-04-15T05:31:18.605Z,66.99
2023-04-15T05:33:45.211Z,64.77
2023-04-15T05:36:11.706Z,63.08
2023-04-15T05:38:38.207Z,63.01
2023-04-15T05:41:04.798Z,62.84
2023-04-15T05:43:31.294Z,59.38
2023-04-15T05:45:57.825Z,58.98
2023-04-15T05:48:24.334Z,59.09
2023-04-15T05:50:50.897Z,59.21
2023-04-15T05:53:17.464Z,56.95
2023-04-15T05:55:43.986Z,54.34
2023-04-15T05:58:10.482Z,51.41
2023-04-15T06:00:37.096Z,48.24
2023-04-15T06:03:03.921Z,45.55
2023-04-15T06:05:30.496Z,44.13
2023-04-15T06:07:56.979Z,42.95
2023-04-15T06:10:23.440Z,42.23
2023-04-15T06:12:49.976Z,41.74
2023-04-15T06:15:16.489Z,41.23
2023-04-15T06:17:43.054Z,40.35
2023-04-15T06:20:10.123Z,39.57
2023-04-15T06:22:37.618Z,39.78
2023-04-15T06:25:04.542Z,39.46
2023-04-15T06:27:31.060Z,39.03
2023-04-15T06:29:57.550Z,38.48
2023-04-15T06:32:24.049Z,37.59
2023-04-15T06:34:50.552Z,36.58
2023-04-15T06:37:17.077Z,36.14
2023-04-15T06:39:43.578Z,36.93
2023-04-15T06:42:11.165Z,36.48
2023-04-15T06:44:37.952Z,36.46
2023-04-15T06:47:04.425Z,37.29
2023-04-15T06:49:30.928Z,38.19
2023-04-15T06:51:57.467Z,39.11
2023-04-15T06:54:23.951Z,37.75
2023-04-15T06:56:50.457Z,39.31
2023-04-15T06:59:16.955Z,40.28
2023-04-15T07:01:44.921Z,40.84
2023-04-15T07:04:11.419Z,42.62
2023-04-15T07:06:37.977Z,44.59
2023-04-15T07:09:04.719Z,42.95
2023-04-15T07:11:31.542Z,41.68
2023-04-15T07:13:58.422Z,40.37
2023-04-15T07:16:25.760Z,40.64
2023-04-15T07:18:53.110Z,38.61
2023-04-15T07:21:19.619Z,37.27
2023-04-15T07:23:46.110Z,36.56
2023-04-15T07:26:12.770Z,35.80
2023-04-15T07:28:39.274Z,35.04
2023-04-15T07:31:05.805Z,32.52
2023-04-15T07:33:32.454Z,32.51
2023-04-15T07:35:58.959Z,31.32
2023-04-15T07:38:26.550Z,31.21
2023-04-15T07:40:53.157Z,29.99
2023-04-15T07:43:19.688Z,29.70
2023-04-15T07:45:46.182Z,29.38
2023-04-15T07:48:12.728Z,29.16
2023-04-15T07:50:39.509Z,29.44
2023-04-15T07:53:07.258Z,29.49
2023-04-15T07:55:33.808Z,29.21
2023-04-15T07:58:00.337Z,27.70
2023-04-15T08:00:26.862Z,28.13
2023-04-15T08:02:53.616Z,27.92
2023-04-15T08:05:20.365Z,28.78
2023-04-15T08:07:46.767Z,29.35
2023-04-15T08:10:13.259Z,28.31
2023-04-15T08:12:39.852Z,28.14
2023-04-15T08:15:06.914Z,28.30
2023-04-15T08:17:33.523Z,27.69
2023-04-15T08:19:59.971Z,28.01
2023-04-15T08:22:26.471Z,26.66
2023-04-15T08:24:54.193Z,26.71
2023-04-15T08:27:20.690Z,27.38
2023-04-15T08:29:47.192Z,28.19
2023-04-15T08:32:13.750Z,27.26
2023-04-15T08:34:40.273Z,26.48
2023-04-15T08:37:06.786Z,26.45
2023-04-15T08:39:33.289Z,25.69
2023-04-15T08:42:04.412Z,24.17
2023-04-15T08:44:34.808Z,24.56
2023-04-15T08:47:02.342Z,25.85
2023-04-15T08:49:29.811Z,26.44
2023-04-15T08:51:59.261Z,26.28
2023-04-15T08:54:26.909Z,27.60
2023-04-15T08:56:53.693Z,26.67
2023-04-15T08:59:21.632Z,27.24
2023-04-15T09:01:49.998Z,26.22
2023-04-15T09:04:17.551Z,25.17
2023-04-15T09:06:44.160Z,25.01
2023-04-15T09:09:10.534Z,24.33
2023-04-15T09:11:37.060Z,24.47
2023-04-15T09:14:03.566Z,25.51
2023-04-15T09:16:30.075Z,25.37
2023-04-15T09:18:56.612Z,25.60
2023-04-15T09:21:24.540Z,25.67
2023-04-15T09:23:56.778Z,25.27
2023-04-15T09:26:36.802Z,25.52
2023-04-15T09:29:11.140Z,25.07
2023-04-15T09:31:37.687Z,25.40
2023-04-15T09:34:04.604Z,25.24
2023-04-15T09:36:58.745Z,24.03
2023-04-15T09:39:25.225Z,24.54
2023-04-15T09:42:07.834Z,25.18
2023-04-15T09:44:34.412Z,25.17
2023-04-15T09:47:01.031Z,25.00
2023-04-15T09:49:27.660Z,25.33
2023-04-15T09:52:05.616Z,24.81
2023-04-15T09:54:34.183Z,24.41
2023-04-15T09:57:08.938Z,24.63
2023-04-15T09:59:35.797Z,24.84
2023-04-15T10:02:04.912Z,26.14
2023-04-15T10:04:35.195Z,24.63
2023-04-15T10:07:03.871Z,23.73
2023-04-15T10:09:31.089Z,23.40
2023-04-15T10:11:57.577Z,23.28
2023-04-15T10:14:25.576Z,24.21
2023-04-15T10:16:56.324Z,24.21
2023-04-15T10:19:27.597Z,24.36
2023-04-15T10:21:55.338Z,24.12
2023-04-15T10:24:22.881Z,24.10
2023-04-15T10:26:51.041Z,22.65
2023-04-15T10:29:17.868Z,23.01
2023-04-15T10:31:44.921Z,23.51
2023-04-15T10:34:13.067Z,22.37
2023-04-15T10:36:39.738Z,22.90
2023-04-15T10:39:41.939Z,22.57
2023-04-15T10:42:16.419Z,22.96
2023-04-15T10:44:44.963Z,23.64
2023-04-15T10:47:14.168Z,23.98
2023-04-15T10:49:49.087Z,23.48
2023-04-15T10:52:17.077Z,24.88
2023-04-15T10:54:44.578Z,24.78
2023-04-15T10:57:16.855Z,23.32
2023-04-15T11:00:16.051Z,22.98
2023-04-15T11:02:55.067Z,23.43
2023-04-15T11:05:43.273Z,23.21
2023-04-15T11:08:10.867Z,22.50
2023-04-15T11:10:37.346Z,22.82
2023-04-15T11:13:04.750Z,22.54
2023-04-15T11:15:41.104Z,22.50
2023-04-15T11:18:21.871Z,22.12
2023-04-15T11:20:53.875Z,21.30
2023-04-15T11:23:28.473Z,21.58
2023-04-15T11:25:56.062Z,22.13
2023-04-15T11:28:25.972Z,21.97
2023-04-15T11:30:52.576Z,22.02
2023-04-15T11:33:19.118Z,23.35
2023-04-15T11:35:45.666Z,23.34
2023-04-15T11:38:14.231Z,23.75
2023-04-15T11:40:44.539Z,23.39
2023-04-15T11:43:17.517Z,22.22
2023-04-15T11:45:57.671Z,22.50
2023-04-15T11:48:31.020Z,23.47
2023-04-15T11:51:07.524Z,23.83
2023-04-15T11:53:36.751Z,23.30
2023-04-15T11:56:03.288Z,22.82
2023-04-15T11:58:29.718Z,22.47
2023-04-15T12:01:01.022Z,22.00
2023-04-15T12:03:28.822Z,22.25
2023-04-15T12:06:15.107Z,22.61
2023-04-15T12:08:59.474Z,22.39
2023-04-15T12:11:34.687Z,22.56
2023-04-15T12:14:31.486Z,22.80
2023-04-15T12:17:02.725Z,23.69
2023-04-15T12:19:40.174Z,23.56
2023-04-15T12:22:13.538Z,24.09
2023-04-15T12:24:40.419Z,24.28
2023-04-15T12:27:09.080Z,24.44
2023-04-15T12:29:37.473Z,25.24
2023-04-15T12:32:08.263Z,24.63
2023-04-15T12:34:37.150Z,25.35
2023-04-15T12:37:05.977Z,23.65
2023-04-15T12:39:41.279Z,23.71
2023-04-15T12:42:08.585Z,23.71
2023-04-15T12:44:36.423Z,24.63
2023-04-15T12:47:03.258Z,24.46
2023-04-15T12:49:32.570Z,25.53
2023-04-15T12:52:00.790Z,24.56
2023-04-15T12:54:28.171Z,23.96
2023-04-15T12:56:54.963Z,24.25
2023-04-15T12:59:21.892Z,23.73
2023-04-15T13:01:48.852Z,24.44
2023-04-15T13:04:16.266Z,24.96
2023-04-15T13:06:43.256Z,25.22
2023-04-15T13:09:09.882Z,25.21
2023-04-15T13:11:36.316Z,26.09
2023-04-15T13:14:04.820Z,26.00
2023-04-15T13:16:32.645Z,25.50
2023-04-15T13:19:00.112Z,24.51
2023-04-15T13:21:26.639Z,24.22
2023-04-15T13:23:53.230Z,26.36
2023-04-15T13:26:19.656Z,26.16
2023-04-15T13:28:46.361Z,25.63
2023-04-15T13:31:12.902Z,24.67
2023-04-15T13:33:39.491Z,25.59
2023-04-15T13:36:06.020Z,25.64
2023-04-15T13:38:32.619Z,25.89
2023-04-15T13:40:59.000Z,26.79
2023-04-15T13:43:25.536Z,26.63
2023-04-15T13:45:52.053Z,26.83
2023-04-15T13:48:18.603Z,27.03
2023-04-15T13:50:45.064Z,26.57
2023-04-15T13:53:12.549Z,26.20
2023-04-15T13:55:39.142Z,25.82
2023-04-15T13:58:05.664Z,25.93
2023-04-15T14:00:32.169Z,25.27
2023-04-15T14:02:58.772Z,25.68
2023-04-15T14:05:25.588Z,24.79
2023-04-15T14:07:51.943Z,24.72
2023-04-15T14:10:18.568Z,25.03
2023-04-15T14:12:44.949Z,24.43
2023-04-15T14:15:11.555Z,24.23
2023-04-15T14:17:38.155Z,23.98
2023-04-15T14:20:07.623Z,23.61
2023-04-15T14:22:34.158Z,23.47
2023-04-15T14:25:00.585Z,23.13
2023-04-15T14:27:27.089Z,22.13
2023-04-15T14:29:53.484Z,23.29
2023-04-15T14:32:20.471Z,23.31
2023-04-15T14:34:46.954Z,23.52
2023-04-15T14:37:13.457Z,23.60
2023-04-15T14:39:40.022Z,24.98
2023-04-15T14:42:06.398Z,24.60
2023-04-15T14:44:32.904Z,23.70
2023-04-15T14:46:59.544Z,23.33
2023-04-15T14:49:27.099Z,22.80
2023-04-15T14:51:53.609Z,23.93
2023-04-15T14:54:21.909Z,24.38
2023-04-15T14:56:48.892Z,25.19
2023-04-15T14:59:15.411Z,24.98
2023-04-15T15:01:42.079Z,24.04
2023-04-15T15:04:10.714Z,23.92
2023-04-15T15:06:37.329Z,24.27
2023-04-15T15:09:04.511Z,25.40
2023-04-15T15:11:31.209Z,25.12
2023-04-15T15:13:57.728Z,25.22
2023-04-15T15:16:25.141Z,25.11
2023-04-15T15:18:51.677Z,25.69
2023-04-15T15:21:18.188Z,25.35
2023-04-15T15:23:45.250Z,25.67
2023-04-15T15:26:12.331Z,26.46
2023-04-15T15:28:38.817Z,26.69
2023-04-15T15:31:05.551Z,27.01
2023-04-15T15:33:32.100Z,26.66
2023-04-15T15:35:58.844Z,25.92
2023-04-15T15:38:25.386Z,25.89
2023-04-15T15:40:51.860Z,25.33
2023-04-15T15:43:18.387Z,25.10
2023-04-15T15:45:45.303Z,25.64
2023-04-15T15:48:11.905Z,25.95
2023-04-15T15:50:38.322Z,25.52
2023-04-15T15:53:04.832Z,25.53
2023-04-15T15:55:31.313Z,25.71
2023-04-15T15:57:57.802Z,25.86
2023-04-15T16:00:24.343Z,25.92
2023-04-15T16:03:05.972Z,26.61
2023-04-15T16:05:33.621Z,26.14
2023-04-15T16:08:00.211Z,26.10
2023-04-15T16:10:26.772Z,26.13
2023-04-15T16:12:53.349Z,26.47
2023-04-15T16:15:19.953Z,27.06
2023-04-15T16:17:46.557Z,27.03
2023-04-15T16:20:13.125Z,27.15
2023-04-15T16:22:39.659Z,27.56
2023-04-15T16:25:06.648Z,27.28
2023-04-15T16:27:33.850Z,27.89
2023-04-15T16:30:01.627Z,27.98
2023-04-15T16:32:28.239Z,28.50
2023-04-15T16:34:55.444Z,28.56
2023-04-15T16:37:22.040Z,29.00
2023-04-15T16:39:48.549Z,29.81
2023-04-15T16:42:15.076Z,29.66
2023-04-15T16:44:41.552Z,29.89
2023-04-15T16:47:08.039Z,30.07
2023-04-15T16:49:34.529Z,30.52
2023-04-15T16:52:01.038Z,31.02
2023-04-15T16:54:27.536Z,32.19
2023-04-15T16:56:54.071Z,33.05
2023-04-15T16:59:20.546Z,33.65
2023-04-15T17:01:47.073Z,34.14
2023-04-15T17:04:13.717Z,34.69
2023-04-15T17:06:40.324Z,34.80
2023-04-15T17:09:07.152Z,34.94
2023-04-15T17:11:33.850Z,36.38
2023-04-15T17:14:00.461Z,36.34
2023-04-15T17:16:26.963Z,36.50
2023-04-15T17:18:53.628Z,38.09
2023-04-15T17:21:20.081Z,39.13
2023-04-15T17:23:46.599Z,39.58
2023-04-15T17:26:13.158Z,39.90
2023-04-15T17:28:39.664Z,39.27
2023-04-15T17:31:06.325Z,39.89
2023-04-15T17:34:00.796Z,40.54
2023-04-15T17:36:19.443Z,40.79
2023-04-15T17:38:45.949Z,41.30
2023-04-15T17:41:12.635Z,41.08
2023-04-15T17:43:39.122Z,41.67
2023-04-15T17:46:07.298Z,41.63
2023-04-15T17:48:34.384Z,41.77
2023-04-15T17:51:00.891Z,42.34
2023-04-15T17:53:27.517Z,41.84
2023-04-15T17:55:54.029Z,42.11
2023-04-15T17:58:20.509Z,42.59
2023-04-15T18:00:47.336Z,42.95
2023-04-15T18:03:14.332Z,43.18
2023-04-15T18:05:42.678Z,43.88
2023-04-15T18:08:09.859Z,43.97
2023-04-15T18:10:36.915Z,44.28
2023-04-15T18:13:03.469Z,45.04
2023-04-15T18:15:33.358Z,44.66
2023-04-15T18:18:00.253Z,44.67
2023-04-15T18:20:26.735Z,45.13
2023-04-15T18:22:53.308Z,45.71
2023-04-15T18:25:19.815Z,45.44
2023-04-15T18:27:46.348Z,46.36
2023-04-15T18:30:13.211Z,46.32
2023-04-15T18:32:39.934Z,46.23
2023-04-15T18:35:07.059Z,46.07
2023-04-15T18:37:33.688Z,46.92
2023-04-15T18:40:00.185Z,46.83
2023-04-15T18:42:26.731Z,47.33
2023-04-15T18:44:53.571Z,47.54
2023-04-15T18:47:20.194Z,47.73
2023-04-15T18:49:46.753Z,48.24
2023-04-15T18:52:13.300Z,47.34
2023-04-15T18:54:39.810Z,46.67
2023-04-15T18:57:06.489Z,47.46
2023-04-15T18:59:33.628Z,47.50
2023-04-15T19:02:00.600Z,47.96
2023-04-15T19:04:27.274Z,47.74
2023-04-15T19:06:53.940Z,47.92
2023-04-15T19:09:20.480Z,47.78
2023-04-15T19:11:46.966Z,47.71
2023-04-15T19:14:13.472Z,47.86
2023-04-15T19:16:40.009Z,47.60
2023-04-15T19:19:06.815Z,47.95
2023-04-15T19:21:33.506Z,48.35
2023-04-15T19:24:00.678Z,48.60
2023-04-15T19:26:27.345Z,48.51
2023-04-15T19:28:53.943Z,48.65
2023-04-15T19:31:20.648Z,48.72
2023-04-15T19:33:47.201Z,48.25
2023-04-15T19:36:13.758Z,48.25
2023-04-15T19:38:40.363Z,48.92
2023-04-15T19:41:06.842Z,49.29
2023-04-15T19:43:33.382Z,49.88
2023-04-15T19:46:00.092Z,50.04
2023-04-15T19:48:26.703Z,49.75
2023-04-15T19:50:53.358Z,50.74
2023-04-15T19:53:19.995Z,50.53
2023-04-15T19:55:46.507Z,50.94
2023-04-15T19:58:13.012Z,51.06
2023-04-15T20:00:39.584Z,51.31
2023-04-15T20:03:06.283Z,51.53
2023-04-15T20:05:32.945Z,51.35
2023-04-15T20:08:00.930Z,51.32
2023-04-15T20:10:27.595Z,52.42
2023-04-15T20:12:54.101Z,51.56
2023-04-15T20:15:20.718Z,51.74
2023-04-15T20:17:47.381Z,51.79
2023-04-15T20:20:14.025Z,52.47
2023-04-15T20:22:40.619Z,51.69
2023-04-15T20:25:07.661Z,51.81
2023-04-15T20:27:34.079Z,52.58
2023-04-15T20:30:00.611Z,52.20
2023-04-15T20:32:27.096Z,52.35
2023-04-15T20:34:53.911Z,52.91
2023-04-15T20:37:20.453Z,52.08
2023-04-15T20:39:46.946Z,52.12
2023-04-15T20:42:13.438Z,52.27
2023-04-15T20:44:40.142Z,52.27
2023-04-15T20:47:07.287Z,52.40
2023-04-15T20:49:37.989Z,52.50
2023-04-15T20:52:06.326Z,52.64
2023-04-15T20:54:32.906Z,53.03
2023-04-15T20:56:59.797Z,53.35
2023-04-15T20:59:26.341Z,53.52
2023-04-15T21:01:52.965Z,53.56
2023-04-15T21:04:19.821Z,53.48
2023-04-15T21:06:46.733Z,53.16
2023-04-15T21:09:13.631Z,52.75
2023-04-15T21:11:57.475Z,53.55
2023-04-15T21:14:26.695Z,53.10
2023-04-15T21:16:53.211Z,52.87
2023-04-15T21:19:19.735Z,52.84
2023-04-15T21:21:46.259Z,52.68
2023-04-15T21:24:12.761Z,52.99
2023-04-15T21:26:39.223Z,52.89
2023-04-15T21:29:07.843Z,53.36
2023-04-15T21:31:36.176Z,53.88
2023-04-15T21:34:02.720Z,54.03
2023-04-15T21:36:29.241Z,54.21
2023-04-15T21:38:55.784Z,54.07
2023-04-15T21:41:22.468Z,53.93
2023-04-15T21:43:49.038Z,53.96
2023-04-15T21:46:23.229Z,53.97
2023-04-15T21:48:53.402Z,54.19
2023-04-15T21:51:20.265Z,54.71
2023-04-15T21:53:47.050Z,54.53
2023-04-15T21:56:13.627Z,55.30
2023-04-15T21:58:40.308Z,55.53
2023-04-15T22:01:06.956Z,55.60
2023-04-15T22:03:34.663Z,55.95
2023-04-15T22:06:02.707Z,56.00
2023-04-15T22:08:30.129Z,55.82
2023-04-15T22:10:57.493Z,55.80
2023-04-15T22:13:23.988Z,56.60
2023-04-15T22:15:50.438Z,56.46
2023-04-15T22:18:16.953Z,57.48
2023-04-15T22:20:43.552Z,57.63
2023-04-15T22:23:10.079Z,57.53
2023-04-15T22:25:37.418Z,57.91
2023-04-15T22:28:05.601Z,57.82
2023-04-15T22:30:32.509Z,57.83
2023-04-15T22:32:59.084Z,57.64
2023-04-15T22:35:25.683Z,58.73
2023-04-15T22:37:52.670Z,58.34
2023-04-15T22:40:19.269Z,58.64
2023-04-15T22:42:46.056Z,58.76
2023-04-15T22:45:12.562Z,59.23
2023-04-15T22:47:39.116Z,59.28
2023-04-15T22:50:06.562Z,59.42
2023-04-15T22:52:33.062Z,59.29
2023-04-15T22:54:59.672Z,59.65
2023-04-15T22:57:26.277Z,59.85
2023-04-15T22:59:52.813Z,60.19
2023-04-15T23:02:19.582Z,59.51
2023-04-15T23:04:46.505Z,59.96
2023-04-15T23:07:13.040Z,60.37
2023-04-15T23:09:39.801Z,60.41
2023-04-15T23:12:06.689Z,60.97
2023-04-15T23:14:33.202Z,61.06
2023-04-15T23:16:59.674Z,61.10
2023-04-15T23:19:26.213Z,61.24
2023-04-15T23:21:54.129Z,61.61
2023-04-15T23:24:20.661Z,61.95
2023-04-15T23:26:47.245Z,62.15
2023-04-15T23:29:13.794Z,61.86
2023-04-15T23:31:40.441Z,62.17
2023-04-15T23:34:07.034Z,62.82
2023-04-15T23:36:33.515Z,62.13
2023-04-15T23:39:00.212Z,62.72
2023-04-15T23:41:26.832Z,61.92
2023-04-15T23:43:53.311Z,61.48
2023-04-15T23:46:19.909Z,62.88
2023-04-15T23:48:46.445Z,62.83
2023-04-15T23:51:12.965Z,61.66
2023-04-15T23:53:39.494Z,62.27
2023-04-15T23:56:06.253Z,62.88
2023-04-15T23:58:34.476Z,62.81
